Time;durP1;ratioP1;P1;durP2;ratioP2;P2;SDS_P1;SDS_P2;PMS_P1;PMS_P2;Temp;Humidity;BMP_temperature;BMP_pressure;BME280_temperature;BME280_humidity;BME280_pressure;Samples;Min_cycle;Max_cycle;Signal;HPM_P1;HPM_P2
2022/11/04 00:01:38;;;;;;;49.03;31.55;;;;;;;;;;5056173;28;20044;-71
2022/11/04 00:04:04;;;;;;;42.95;29.40;;;;;;;;;;5055913;28;20021;-71
2022/11/04 00:06:30;;;;;;;42.55;29.17;;;;;;;;;;5055782;28;20111;-72
2022/11/04 00:08:57;;;;;;;45.67;29.00;;;;;;;;;;5055973;28;20029;-71
2022/11/04 00:14:09;;;;;;;48.83;31.95;;;;;;;;;;5056215;28;20573;-71
2022/11/04 00:19:20;;;;;;;49.45;33.88;;;;;;;;;;5044112;28;20032;-71
2022/11/04 00:29:58;;;;;;;43.13;30.17;;;;;;;;;;5055929;28;20096;-71
2022/11/04 00:35:10;;;;;;;39.67;28.63;;;;;;;;;;5055704;28;20031;-71
2022/11/04 00:37:40;;;;;;;44.03;28.95;;;;;;;;;;5055522;28;20021;-71
2022/11/04 00:40:07;;;;;;;48.05;31.40;;;;;;;;;;5055318;28;20025;-71
2022/11/04 00:42:33;;;;;;;47.33;32.10;;;;;;;;;;5055035;28;20028;-71
2022/11/04 00:44:59;;;;;;;45.00;30.48;;;;;;;;;;5055197;28;20218;-72
2022/11/04 00:47:25;;;;;;;45.15;31.90;;;;;;;;;;5054990;28;20112;-71
2022/11/04 00:49:52;;;;;;;47.10;31.00;;;;;;;;;;5055043;28;20021;-72
2022/11/04 00:52:18;;;;;;;43.28;28.00;;;;;;;;;;5055246;28;20479;-71
2022/11/04 00:54:44;;;;;;;41.30;27.88;;;;;;;;;;5054841;28;20040;-71
2022/11/04 00:57:14;;;;;;;42.97;30.13;;;;;;;;;;5054943;28;20064;-71
2022/11/04 00:59:40;;;;;;;48.97;31.52;;;;;;;;;;5053927;28;20502;-71
2022/11/04 01:02:07;;;;;;;45.22;29.20;;;;;;;;;;5054871;28;20111;-71
2022/11/04 01:04:33;;;;;;;48.55;32.60;;;;;;;;;;5054812;28;20021;-71
2022/11/04 01:06:59;;;;;;;42.85;28.67;;;;;;;;;;5054840;28;20357;-71
2022/11/04 01:09:25;;;;;;;42.95;29.23;;;;;;;;;;5054675;28;20029;-71
2022/11/04 01:11:51;;;;;;;39.30;27.35;;;;;;;;;;5054806;28;20049;-71
2022/11/04 01:14:18;;;;;;;41.55;27.63;;;;;;;;;;5054599;28;20387;-72
2022/11/04 01:16:44;;;;;;;43.08;28.83;;;;;;;;;;5054517;28;20033;-72
2022/11/04 01:19:10;;;;;;;42.80;27.88;;;;;;;;;;5054651;28;20498;-72
2022/11/04 01:21:36;;;;;;;41.38;27.50;;;;;;;;;;5054619;28;20032;-71
2022/11/04 01:24:02;;;;;;;43.05;28.23;;;;;;;;;;5054353;28;20534;-72
2022/11/04 01:26:29;;;;;;;38.40;26.98;;;;;;;;;;5054278;28;20029;-71
2022/11/04 01:28:56;;;;;;;40.17;28.35;;;;;;;;;;5053067;28;20159;-71
2022/11/04 01:31:23;;;;;;;36.33;26.42;;;;;;;;;;5054353;28;20021;-71
2022/11/04 01:33:50;;;;;;;36.70;26.67;;;;;;;;;;5054101;28;20021;-71
2022/11/04 01:36:16;;;;;;;37.72;27.48;;;;;;;;;;5054466;28;20044;-71
2022/11/04 01:38:42;;;;;;;44.47;29.88;;;;;;;;;;5054005;28;20032;-71
2022/11/04 01:41:09;;;;;;;44.20;30.77;;;;;;;;;;5054804;28;20021;-72
2022/11/04 01:43:46;;;;;;;45.10;29.25;;;;;;;;;;5053941;28;20072;-71
2022/11/04 01:46:15;;;;;;;45.90;30.63;;;;;;;;;;5053853;28;20104;-71
2022/11/04 01:48:41;;;;;;;44.90;29.20;;;;;;;;;;5053968;28;20037;-71
2022/11/04 01:51:07;;;;;;;46.50;29.80;;;;;;;;;;5052702;28;20074;-71
2022/11/04 01:53:39;;;;;;;48.72;30.73;;;;;;;;;;5052154;28;20124;-71
2022/11/04 01:56:10;;;;;;;;;;;;;;;;;;5054230;28;20029;-72
2022/11/04 01:58:39;;;;;;;40.80;26.10;;;;;;;;;;5053640;28;19950;-71
2022/11/04 02:01:05;;;;;;;38.72;25.48;;;;;;;;;;5053716;28;20040;-72
2022/11/04 02:03:33;;;;;;;38.38;25.77;;;;;;;;;;5053703;28;20108;-71
2022/11/04 02:06:00;;;;;;;34.63;24.35;;;;;;;;;;5053547;28;20423;-71
2022/11/04 02:08:26;;;;;;;36.72;25.00;;;;;;;;;;5054057;28;20135;-72
2022/11/04 02:11:00;;;;;;;35.05;24.33;;;;;;;;;;5042357;28;20562;-73
2022/11/04 02:13:26;;;;;;;36.53;24.42;;;;;;;;;;5049462;28;20036;-73
2022/11/04 02:16:07;;;;;;;39.88;26.35;;;;;;;;;;5053319;28;20112;-73
2022/11/04 02:18:42;;;;;;;37.72;25.27;;;;;;;;;;5053491;28;20032;-73
2022/11/04 02:21:11;;;;;;;35.20;23.30;;;;;;;;;;5053351;28;20075;-73
2022/11/04 02:23:56;;;;;;;38.33;24.05;;;;;;;;;;5053412;28;20379;-73
2022/11/04 02:26:37;;;;;;;40.50;27.70;;;;;;;;;;5053093;28;20028;-73
2022/11/04 02:29:22;;;;;;;54.67;31.92;;;;;;;;;;5053275;28;20035;-73
2022/11/04 02:32:11;;;;;;;38.83;27.15;;;;;;;;;;5053739;28;20103;-72
2022/11/04 02:35:03;;;;;;;39.20;26.40;;;;;;;;;;4972177;28;20643;-73
2022/11/04 02:37:38;;;;;;;40.30;25.33;;;;;;;;;;4972435;28;20049;-73
2022/11/04 02:40:10;;;;;;;41.92;24.85;;;;;;;;;;4972377;28;20039;-72
2022/11/04 02:42:39;;;;;;;36.03;24.70;;;;;;;;;;4971790;28;20034;-71
2022/11/04 02:45:05;;;;;;;35.75;24.10;;;;;;;;;;4955893;28;20038;-72
2022/11/04 02:47:32;;;;;;;36.47;24.10;;;;;;;;;;4972286;28;20078;-72
2022/11/04 02:50:02;;;;;;;34.53;23.42;;;;;;;;;;4967766;28;20090;-72
2022/11/04 02:52:48;;;;;;;38.33;25.57;;;;;;;;;;4963940;28;20456;-72
2022/11/04 02:55:19;;;;;;;37.55;25.38;;;;;;;;;;4972110;28;20436;-74
2022/11/04 02:57:47;;;;;;;37.60;26.10;;;;;;;;;;4971983;28;20117;-72
2022/11/04 03:00:13;;;;;;;39.28;26.40;;;;;;;;;;4972043;28;20021;-71
2022/11/04 03:02:42;;;;;;;37.95;25.40;;;;;;;;;;4971966;28;20023;-71
2022/11/04 03:05:13;;;;;;;40.65;25.05;;;;;;;;;;4972057;28;20505;-71
2022/11/04 03:07:41;;;;;;;37.75;24.33;;;;;;;;;;4971826;28;20555;-72
2022/11/04 03:10:12;;;;;;;36.67;23.75;;;;;;;;;;4958249;28;20505;-71
2022/11/04 03:12:42;;;;;;;35.38;22.67;;;;;;;;;;5047000;28;20134;-71
2022/11/04 03:15:13;;;;;;;37.60;23.65;;;;;;;;;;5052256;28;20029;-71
2022/11/04 03:17:44;;;;;;;30.27;21.25;;;;;;;;;;5052666;28;20386;-72
2022/11/04 03:20:18;;;;;;;33.08;21.25;;;;;;;;;;5052678;28;20033;-71
2022/11/04 03:22:44;;;;;;;31.35;21.65;;;;;;;;;;5053993;28;20036;-71
2022/11/04 03:25:10;;;;;;;35.88;22.65;;;;;;;;;;5059270;28;20545;-72
2022/11/04 03:27:49;;;;;;;31.70;21.88;;;;;;;;;;5058909;28;20033;-72
2022/11/04 03:30:19;;;;;;;34.67;22.50;;;;;;;;;;5059208;28;20032;-72
2022/11/04 03:33:03;;;;;;;29.65;21.58;;;;;;;;;;5059356;28;20451;-72
2022/11/04 03:35:29;;;;;;;32.65;21.35;;;;;;;;;;5059069;28;20060;-71
2022/11/04 03:37:56;;;;;;;34.30;22.33;;;;;;;;;;5059147;28;20036;-72
2022/11/04 03:40:22;;;;;;;32.17;22.52;;;;;;;;;;5059083;28;20426;-72
2022/11/04 03:42:57;;;;;;;33.88;22.95;;;;;;;;;;5037350;28;20395;-71
2022/11/04 03:45:23;;;;;;;30.38;20.55;;;;;;;;;;5051945;28;20071;-71
2022/11/04 03:47:50;;;;;;;32.20;22.10;;;;;;;;;;5058486;28;20040;-75
2022/11/04 03:50:29;;;;;;;35.30;21.25;;;;;;;;;;5052489;28;20033;-73
2022/11/04 03:52:56;;;;;;;34.80;20.58;;;;;;;;;;5044880;28;20037;-72
2022/11/04 03:55:31;;;;;;;29.23;19.75;;;;;;;;;;5059144;28;20021;-72
2022/11/04 03:58:05;;;;;;;33.13;21.08;;;;;;;;;;5058867;28;20029;-71
2022/11/04 04:00:38;;;;;;;33.80;22.70;;;;;;;;;;5058649;28;20371;-71
2022/11/04 04:03:06;;;;;;;31.08;20.98;;;;;;;;;;5058678;28;20021;-71
2022/11/04 04:05:36;;;;;;;30.10;20.63;;;;;;;;;;5058756;28;20460;-71
2022/11/04 04:08:20;;;;;;;34.63;21.77;;;;;;;;;;5059240;28;20478;-72
2022/11/04 04:10:52;;;;;;;31.10;21.70;;;;;;;;;;5046501;28;20025;-71
2022/11/04 04:13:18;;;;;;;31.67;21.48;;;;;;;;;;5059048;28;20550;-71
2022/11/04 04:16:07;;;;;;;31.65;20.52;;;;;;;;;;5058659;28;20479;-72
2022/11/04 04:18:44;;;;;;;28.83;19.65;;;;;;;;;;5058635;28;20155;-73
2022/11/04 04:21:13;;;;;;;30.38;18.33;;;;;;;;;;5059042;28;20367;-72
2022/11/04 04:29:10;;;;;;;30.65;19.02;;;;;;;;;;5058445;28;20032;-71
2022/11/04 04:31:49;;;;;;;27.40;17.92;;;;;;;;;;5059135;28;20028;-71
2022/11/04 04:34:19;;;;;;;29.15;19.88;;;;;;;;;;5056161;28;20021;-72
2022/11/04 04:36:51;;;;;;;26.27;18.35;;;;;;;;;;5055482;28;20047;-71
2022/11/04 04:45:03;;;;;;;28.30;18.27;;;;;;;;;;5023200;28;20565;-72
2022/11/04 04:47:49;;;;;;;27.83;19.00;;;;;;;;;;5019732;28;20104;-72
2022/11/04 04:50:17;;;;;;;29.08;19.02;;;;;;;;;;5035076;28;20472;-71
2022/11/04 04:52:45;;;;;;;45.85;25.27;;;;;;;;;;5035009;28;20080;-74
2022/11/04 04:55:12;;;;;;;62.88;32.78;;;;;;;;;;5035560;28;20478;-73
2022/11/04 04:57:38;;;;;;;38.20;22.90;;;;;;;;;;5035045;28;20025;-74
2022/11/04 05:00:05;;;;;;;36.17;21.15;;;;;;;;;;5035076;28;20013;-75
2022/11/04 05:02:31;;;;;;;30.95;19.27;;;;;;;;;;5016886;28;20073;-75
2022/11/04 05:04:58;;;;;;;31.20;19.98;;;;;;;;;;5035015;28;20025;-73
2022/11/04 05:07:24;;;;;;;31.25;19.08;;;;;;;;;;5034880;28;20037;-72
2022/11/04 05:09:50;;;;;;;30.85;20.13;;;;;;;;;;5034830;28;20068;-72
2022/11/04 05:12:16;;;;;;;34.92;23.02;;;;;;;;;;5016702;28;20030;-72
2022/11/04 05:14:42;;;;;;;37.63;23.80;;;;;;;;;;5034872;28;20032;-71
2022/11/04 05:17:08;;;;;;;43.15;24.55;;;;;;;;;;5034649;28;20018;-71
2022/11/04 05:19:34;;;;;;;41.10;26.00;;;;;;;;;;5034915;28;20055;-72
2022/11/04 05:22:00;;;;;;;64.13;41.35;;;;;;;;;;5034574;28;20036;-72
2022/11/04 05:24:26;;;;;;;71.97;42.85;;;;;;;;;;5034681;28;20020;-72
2022/11/04 05:26:52;;;;;;;52.55;35.72;;;;;;;;;;5034356;28;20043;-72
2022/11/04 05:29:18;;;;;;;57.22;36.63;;;;;;;;;;5034711;28;20360;-72
2022/11/04 05:31:44;;;;;;;61.45;41.55;;;;;;;;;;5016297;28;20091;-74
2022/11/04 05:34:11;;;;;;;62.63;37.67;;;;;;;;;;5034563;28;20021;-72
2022/11/04 05:36:37;;;;;;;74.95;45.58;;;;;;;;;;5034384;28;20021;-71
2022/11/04 05:39:04;;;;;;;64.25;43.28;;;;;;;;;;5034373;28;20037;-71
2022/11/04 05:41:30;;;;;;;81.43;47.10;;;;;;;;;;5033969;28;20017;-72
2022/11/04 05:43:57;;;;;;;255.55;130.18;;;;;;;;;;5046805;28;20081;-71
2022/11/04 05:46:23;;;;;;;108.85;66.57;;;;;;;;;;5053564;28;20390;-71
2022/11/04 05:48:50;;;;;;;149.40;84.70;;;;;;;;;;5054026;28;20036;-72
2022/11/04 05:51:17;;;;;;;159.98;88.13;;;;;;;;;;5054210;28;20100;-72
2022/11/04 05:53:43;;;;;;;286.83;156.20;;;;;;;;;;5053962;28;20471;-71
2022/11/04 05:56:09;;;;;;;271.80;149.25;;;;;;;;;;5053732;28;20033;-72
2022/11/04 05:58:35;;;;;;;136.32;77.78;;;;;;;;;;5053654;28;20424;-71
2022/11/04 06:01:24;;;;;;;102.70;62.90;;;;;;;;;;5053789;28;20479;-71
2022/11/04 06:03:50;;;;;;;114.35;64.50;;;;;;;;;;5053592;28;20032;-72
2022/11/04 06:06:16;;;;;;;93.65;53.75;;;;;;;;;;5053654;28;20017;-72
2022/11/04 06:08:42;;;;;;;116.40;72.38;;;;;;;;;;5053372;28;20021;-72
2022/11/04 06:11:08;;;;;;;73.70;44.17;;;;;;;;;;5053657;28;20021;-72
2022/11/04 06:13:34;;;;;;;122.63;83.32;;;;;;;;;;5053504;28;20037;-72
2022/11/04 06:16:00;;;;;;;91.03;53.10;;;;;;;;;;5053671;28;20029;-72
2022/11/04 06:18:26;;;;;;;62.55;38.85;;;;;;;;;;5053540;28;20051;-72
2022/11/04 06:21:13;;;;;;;67.80;39.53;;;;;;;;;;5053435;28;20100;-72
2022/11/04 06:23:39;;;;;;;48.08;34.05;;;;;;;;;;5053030;28;20167;-71
2022/11/04 06:26:08;;;;;;;52.00;33.92;;;;;;;;;;5053348;28;20479;-72
2022/11/04 06:28:35;;;;;;;48.55;30.25;;;;;;;;;;5052848;28;20029;-72
2022/11/04 06:31:01;;;;;;;54.25;35.00;;;;;;;;;;5053264;28;20035;-72
2022/11/04 06:33:28;;;;;;;55.83;37.05;;;;;;;;;;5053093;28;20025;-72
2022/11/04 06:36:01;;;;;;;66.93;39.70;;;;;;;;;;5052790;28;20017;-71
2022/11/04 06:38:29;;;;;;;54.85;37.78;;;;;;;;;;5052937;28;20025;-74
2022/11/04 06:40:55;;;;;;;63.55;42.95;;;;;;;;;;5053174;28;20487;-74
2022/11/04 06:43:21;;;;;;;101.72;66.32;;;;;;;;;;5052583;28;20064;-74
2022/11/04 06:45:53;;;;;;;123.82;74.63;;;;;;;;;;5052912;28;20027;-75
2022/11/04 06:48:19;;;;;;;84.07;51.40;;;;;;;;;;5052684;28;20044;-73
2022/11/04 06:50:45;;;;;;;94.63;57.75;;;;;;;;;;5052570;28;20426;-75
2022/11/04 06:53:12;;;;;;;88.00;51.25;;;;;;;;;;5052658;28;20095;-75
2022/11/04 06:55:38;;;;;;;78.70;49.85;;;;;;;;;;5052698;28;20066;-71
2022/11/04 06:58:04;;;;;;;77.25;46.50;;;;;;;;;;5052044;28;20025;-75
2022/11/04 07:00:30;;;;;;;75.05;45.03;;;;;;;;;;5052650;28;20105;-74
2022/11/04 07:02:57;;;;;;;81.07;47.60;;;;;;;;;;5052600;28;20154;-74
2022/11/04 07:05:23;;;;;;;75.18;44.72;;;;;;;;;;5052313;28;20070;-73
2022/11/04 07:07:49;;;;;;;87.00;52.97;;;;;;;;;;5052589;28;20029;-72
2022/11/04 07:10:16;;;;;;;108.43;65.95;;;;;;;;;;5052311;28;20545;-71
2022/11/04 07:12:42;;;;;;;104.93;65.70;;;;;;;;;;5052915;28;20024;-71
2022/11/04 07:15:08;;;;;;;110.65;67.22;;;;;;;;;;5052340;28;20498;-71
2022/11/04 07:17:34;;;;;;;112.57;71.57;;;;;;;;;;5052754;28;20103;-71
2022/11/04 07:20:00;;;;;;;118.13;70.63;;;;;;;;;;5052299;28;20025;-71
2022/11/04 07:22:26;;;;;;;107.75;69.65;;;;;;;;;;5052480;28;20052;-72
2022/11/04 07:24:52;;;;;;;110.15;70.70;;;;;;;;;;5052367;28;20360;-72
2022/11/04 07:27:18;;;;;;;99.65;62.10;;;;;;;;;;5052569;28;20425;-72
2022/11/04 07:29:45;;;;;;;109.82;64.50;;;;;;;;;;5052262;28;20032;-72
2022/11/04 07:32:11;;;;;;;98.80;60.35;;;;;;;;;;5052390;28;20044;-72
2022/11/04 07:34:37;;;;;;;94.32;59.38;;;;;;;;;;5052224;28;20013;-72
2022/11/04 07:37:03;;;;;;;97.10;57.42;;;;;;;;;;5052128;28;20032;-72
2022/11/04 07:39:29;;;;;;;108.00;71.82;;;;;;;;;;5052215;28;20096;-72
2022/11/04 07:41:55;;;;;;;99.50;65.60;;;;;;;;;;5052387;28;20118;-72
2022/11/04 07:44:22;;;;;;;112.93;66.95;;;;;;;;;;5051855;28;20412;-72
2022/11/04 07:46:48;;;;;;;101.95;60.13;;;;;;;;;;5052160;28;20033;-71
2022/11/04 07:49:14;;;;;;;103.05;57.53;;;;;;;;;;5052079;28;20032;-72
2022/11/04 07:51:41;;;;;;;98.82;55.17;;;;;;;;;;5051965;28;20087;-72
2022/11/04 07:54:07;;;;;;;95.53;53.67;;;;;;;;;;5052123;28;20029;-75
2022/11/04 07:56:33;;;;;;;100.88;61.72;;;;;;;;;;5052521;28;20028;-74
2022/11/04 07:58:59;;;;;;;88.85;56.72;;;;;;;;;;5051814;28;20099;-74
2022/11/04 08:01:25;;;;;;;101.40;56.45;;;;;;;;;;5052277;28;20029;-72
2022/11/04 08:03:51;;;;;;;109.70;67.53;;;;;;;;;;5042929;28;20124;-74
2022/11/04 08:06:18;;;;;;;85.07;55.45;;;;;;;;;;5044911;28;20021;-72
2022/11/04 08:08:46;;;;;;;101.72;59.53;;;;;;;;;;5052499;28;20036;-71
2022/11/04 08:11:14;;;;;;;87.63;56.33;;;;;;;;;;5055899;28;20017;-72
2022/11/04 08:13:41;;;;;;;87.40;58.63;;;;;;;;;;5055411;28;20044;-72
2022/11/04 08:16:12;;;;;;;83.20;57.20;;;;;;;;;;5055865;28;20522;-71
2022/11/04 08:18:38;;;;;;;93.60;54.03;;;;;;;;;;5055522;28;20017;-72
2022/11/04 08:21:05;;;;;;;88.00;56.88;;;;;;;;;;5055597;28;20074;-72
2022/11/04 08:23:31;;;;;;;76.82;51.90;;;;;;;;;;5055343;28;20052;-72
2022/11/04 08:25:57;;;;;;;83.65;56.92;;;;;;;;;;5055521;28;20044;-72
2022/11/04 08:28:24;;;;;;;87.15;55.30;;;;;;;;;;5055406;28;20064;-72
2022/11/04 08:31:01;;;;;;;87.55;56.72;;;;;;;;;;5055298;28;20021;-71
2022/11/04 08:33:28;;;;;;;90.55;55.20;;;;;;;;;;5055469;28;20029;-72
2022/11/04 08:35:55;;;;;;;86.07;58.30;;;;;;;;;;5054874;28;20021;-72
2022/11/04 08:38:21;;;;;;;97.53;60.42;;;;;;;;;;5055438;28;20486;-72
2022/11/04 08:40:47;;;;;;;112.32;64.07;;;;;;;;;;5055007;28;20044;-71
2022/11/04 08:43:13;;;;;;;118.68;75.22;;;;;;;;;;5055132;28;20483;-72
2022/11/04 08:45:44;;;;;;;162.68;109.80;;;;;;;;;;5054878;28;20033;-72
2022/11/04 08:48:10;;;;;;;126.22;88.75;;;;;;;;;;5055155;28;20036;-72
2022/11/04 08:50:36;;;;;;;113.55;74.68;;;;;;;;;;5054816;28;20016;-73
2022/11/04 08:53:03;;;;;;;99.93;63.53;;;;;;;;;;5055202;28;20028;-72
2022/11/04 08:55:30;;;;;;;103.03;63.40;;;;;;;;;;5054867;28;20020;-72
2022/11/04 08:57:56;;;;;;;64.35;39.97;;;;;;;;;;5055116;28;20426;-72
2022/11/04 09:00:23;;;;;;;64.47;37.22;;;;;;;;;;5054732;28;20024;-72
2022/11/04 09:02:49;;;;;;;40.25;23.13;;;;;;;;;;5055028;28;20025;-72
2022/11/04 09:05:15;;;;;;;30.10;20.38;;;;;;;;;;5054443;28;20017;-72
2022/11/04 09:07:41;;;;;;;34.67;23.05;;;;;;;;;;5054796;28;20076;-73
2022/11/04 09:10:08;;;;;;;45.00;28.27;;;;;;;;;;5054623;28;20027;-72
2022/11/04 09:12:34;;;;;;;31.13;18.52;;;;;;;;;;5054947;28;20367;-73
2022/11/04 09:15:00;;;;;;;29.73;16.95;;;;;;;;;;5054364;28;20052;-72
2022/11/04 09:17:27;;;;;;;21.75;15.50;;;;;;;;;;5054767;28;20021;-72
2022/11/04 09:19:53;;;;;;;18.10;10.25;;;;;;;;;;5054149;28;20475;-72
2022/11/04 09:22:19;;;;;;;18.13;9.77;;;;;;;;;;5053836;28;20025;-73
2022/11/04 09:24:45;;;;;;;12.98;8.57;;;;;;;;;;5054444;28;20489;-72
2022/11/04 09:27:11;;;;;;;12.57;8.80;;;;;;;;;;5054335;28;20491;-72
2022/11/04 09:29:37;;;;;;;29.58;17.70;;;;;;;;;;5054161;28;20494;-73
2022/11/04 09:32:04;;;;;;;46.95;27.27;;;;;;;;;;5054337;28;20029;-72
2022/11/04 09:34:31;;;;;;;23.92;15.75;;;;;;;;;;5053999;28;20092;-72
2022/11/04 09:36:57;;;;;;;27.13;14.55;;;;;;;;;;5054319;28;20467;-72
2022/11/04 09:39:24;;;;;;;36.30;22.25;;;;;;;;;;5053953;28;20025;-72
2022/11/04 09:41:50;;;;;;;26.00;13.95;;;;;;;;;;5054186;28;20028;-72
2022/11/04 09:44:16;;;;;;;18.58;10.73;;;;;;;;;;5053546;28;20071;-72
2022/11/04 09:46:43;;;;;;;13.85;7.70;;;;;;;;;;5053990;28;20387;-72
2022/11/04 09:49:11;;;;;;;12.57;6.72;;;;;;;;;;5053651;28;20087;-72
2022/11/04 09:51:40;;;;;;;11.90;6.93;;;;;;;;;;5053917;28;20021;-73
2022/11/04 09:54:18;;;;;;;14.90;7.50;;;;;;;;;;5053885;28;20074;-74
2022/11/04 09:56:45;;;;;;;18.60;13.52;;;;;;;;;;5053577;28;20032;-72
2022/11/04 09:59:14;;;;;;;14.10;7.13;;;;;;;;;;5053894;28;20078;-72
2022/11/04 10:01:44;;;;;;;9.57;6.35;;;;;;;;;;5053474;28;20086;-72
2022/11/04 10:04:10;;;;;;;13.25;6.65;;;;;;;;;;5053831;28;20040;-73
2022/11/04 10:06:55;;;;;;;11.15;7.47;;;;;;;;;;5053517;28;20387;-73
2022/11/04 10:09:44;;;;;;;12.20;7.88;;;;;;;;;;5053642;28;20031;-72
2022/11/04 10:12:28;;;;;;;11.15;7.07;;;;;;;;;;4991651;28;20481;-72
2022/11/04 10:14:57;;;;;;;13.20;8.73;;;;;;;;;;4992103;28;20500;-72
2022/11/04 10:17:35;;;;;;;8.45;6.15;;;;;;;;;;4991986;28;20483;-72
2022/11/04 10:20:04;;;;;;;9.15;5.93;;;;;;;;;;4992101;28;20069;-72
2022/11/04 10:22:31;;;;;;;13.05;6.32;;;;;;;;;;4991919;28;20077;-73
2022/11/04 10:25:08;;;;;;;11.93;5.63;;;;;;;;;;4991693;28;20109;-74
2022/11/04 10:27:36;;;;;;;13.70;8.25;;;;;;;;;;4991752;28;20121;-72
2022/11/04 10:30:22;;;;;;;13.02;6.85;;;;;;;;;;4991618;28;20045;-72
2022/11/04 10:32:58;;;;;;;14.55;8.07;;;;;;;;;;4990767;28;20113;-73
2022/11/04 10:35:24;;;;;;;15.38;9.52;;;;;;;;;;4991348;28;20042;-72
2022/11/04 10:37:52;;;;;;;16.75;10.35;;;;;;;;;;4991690;28;20456;-74
2022/11/04 10:40:18;;;;;;;21.35;11.93;;;;;;;;;;4991639;28;20132;-72
2022/11/04 10:42:44;;;;;;;14.93;8.50;;;;;;;;;;4974838;28;20092;-72
2022/11/04 10:45:13;;;;;;;12.50;7.55;;;;;;;;;;4991429;28;20039;-72
2022/11/04 10:47:45;;;;;;;13.80;7.70;;;;;;;;;;4991446;28;20050;-72
2022/11/04 10:50:11;;;;;;;15.52;9.63;;;;;;;;;;5048031;28;20103;-74
2022/11/04 10:52:37;;;;;;;14.85;9.45;;;;;;;;;;5052977;28;20036;-72
2022/11/04 10:55:11;;;;;;;19.50;9.48;;;;;;;;;;5052477;28;20017;-72
2022/11/04 10:57:37;;;;;;;15.60;9.35;;;;;;;;;;5052903;28;20025;-72
2022/11/04 11:00:04;;;;;;;10.48;7.38;;;;;;;;;;5050077;28;20082;-72
2022/11/04 11:02:36;;;;;;;17.77;8.68;;;;;;;;;;5052702;28;20035;-72
2022/11/04 11:05:13;;;;;;;12.63;6.28;;;;;;;;;;5052482;28;20367;-72
2022/11/04 11:07:40;;;;;;;26.95;7.13;;;;;;;;;;5052473;28;20498;-72
2022/11/04 11:10:15;;;;;;;8.65;6.43;;;;;;;;;;5052175;28;20490;-71
2022/11/04 11:12:49;;;;;;;12.13;6.82;;;;;;;;;;5052537;28;20033;-72
2022/11/04 11:15:26;;;;;;;11.93;6.68;;;;;;;;;;5052276;28;20144;-72
2022/11/04 11:18:07;;;;;;;13.13;7.28;;;;;;;;;;5052407;28;20025;-72
2022/11/04 11:20:36;;;;;;;;;;;;;;;;;;5052870;28;20024;-72
2022/11/04 11:23:08;;;;;;;9.82;5.75;;;;;;;;;;5052038;28;19909;-72
2022/11/04 11:25:34;;;;;;;11.48;6.35;;;;;;;;;;5052466;28;20017;-72
2022/11/04 11:28:04;;;;;;;13.07;7.78;;;;;;;;;;5051982;28;20033;-72
2022/11/04 11:30:54;;;;;;;13.00;7.80;;;;;;;;;;5052161;28;20025;-72
2022/11/04 11:33:24;;;;;;;17.38;7.55;;;;;;;;;;5052361;28;20033;-72
2022/11/04 11:35:54;;;;;;;8.45;6.45;;;;;;;;;;5052300;28;20029;-73
2022/11/04 11:38:22;;;;;;;12.17;7.27;;;;;;;;;;5052108;28;20536;-73
2022/11/04 11:40:51;;;;;;;12.30;7.35;;;;;;;;;;5052333;28;20624;-73
2022/11/04 11:43:23;;;;;;;16.80;7.88;;;;;;;;;;5051878;28;20124;-72
2022/11/04 11:45:49;;;;;;;16.77;7.97;;;;;;;;;;5055977;28;20091;-72
2022/11/04 11:48:39;;;;;;;13.38;6.47;;;;;;;;;;5056312;28;20091;-72
2022/11/04 11:51:05;;;;;;;14.30;6.47;;;;;;;;;;4994572;28;20039;-71
2022/11/04 11:53:38;;;;;;;14.80;7.30;;;;;;;;;;4994745;28;20044;-72
2022/11/04 11:56:08;;;;;;;15.63;11.48;;;;;;;;;;4994694;28;20097;-72
2022/11/04 11:58:51;;;;;;;20.60;10.80;;;;;;;;;;4994586;28;20027;-72
2022/11/04 12:01:17;;;;;;;19.40;11.77;;;;;;;;;;4994336;28;20057;-72
2022/11/04 12:03:47;;;;;;;24.13;13.43;;;;;;;;;;4994432;28;20473;-72
2022/11/04 12:06:18;;;;;;;21.00;12.68;;;;;;;;;;4994153;28;20125;-72
2022/11/04 12:08:44;;;;;;;18.73;10.93;;;;;;;;;;4994550;28;20046;-72
2022/11/04 12:11:15;;;;;;;29.90;13.38;;;;;;;;;;4994494;28;20033;-72
2022/11/04 12:13:45;;;;;;;16.33;9.23;;;;;;;;;;4994411;28;20034;-72
2022/11/04 12:16:18;;;;;;;23.17;9.70;;;;;;;;;;4994000;28;20050;-72
2022/11/04 12:18:44;;;;;;;24.38;10.70;;;;;;;;;;4994448;28;20073;-72
2022/11/04 12:21:21;;;;;;;19.20;9.75;;;;;;;;;;4994138;28;20042;-72
2022/11/04 12:23:53;;;;;;;25.25;15.45;;;;;;;;;;4994037;28;20069;-72
2022/11/04 12:26:28;;;;;;;29.15;14.48;;;;;;;;;;4994087;28;20077;-72
2022/11/04 12:29:13;;;;;;;20.55;12.02;;;;;;;;;;5046318;28;20086;-72
2022/11/04 12:31:45;;;;;;;18.20;10.57;;;;;;;;;;5055522;28;20557;-73
2022/11/04 12:34:30;;;;;;;24.55;12.73;;;;;;;;;;5055090;28;20398;-72
2022/11/04 12:37:05;;;;;;;22.27;11.73;;;;;;;;;;5055593;28;20033;-72
2022/11/04 12:39:31;;;;;;;15.27;9.00;;;;;;;;;;5041493;28;20176;-72
2022/11/04 12:42:06;;;;;;;14.95;8.57;;;;;;;;;;5055097;28;20029;-73
2022/11/04 12:44:35;;;;;;;15.73;8.40;;;;;;;;;;5054675;28;20049;-72
2022/11/04 12:47:08;;;;;;;12.40;7.20;;;;;;;;;;5055167;28;20090;-72
2022/11/04 12:49:55;;;;;;;11.30;7.38;;;;;;;;;;5054969;28;20025;-72
2022/11/04 12:52:30;;;;;;;16.35;8.38;;;;;;;;;;4974333;28;20149;-72
2022/11/04 12:54:56;;;;;;;14.65;8.32;;;;;;;;;;4973629;28;20117;-72
2022/11/04 12:57:37;;;;;;;19.38;8.65;;;;;;;;;;4973480;28;20114;-72
2022/11/04 13:00:06;;;;;;;14.07;8.52;;;;;;;;;;4974276;28;20031;-72
2022/11/04 13:02:36;;;;;;;15.75;8.93;;;;;;;;;;4973773;28;20039;-73
2022/11/04 13:05:17;;;;;;;12.90;8.23;;;;;;;;;;4974058;28;20066;-73
2022/11/04 13:07:47;;;;;;;15.48;8.20;;;;;;;;;;4973972;28;20035;-72
2022/11/04 13:10:20;;;;;;;18.23;9.70;;;;;;;;;;4973855;28;20085;-72
2022/11/04 13:12:48;;;;;;;19.65;11.38;;;;;;;;;;4973701;28;20038;-72
2022/11/04 13:15:14;;;;;;;19.88;11.80;;;;;;;;;;4973683;28;20432;-71
2022/11/04 13:17:41;;;;;;;23.65;13.55;;;;;;;;;;4973666;28;20057;-71
2022/11/04 13:20:13;;;;;;;21.60;12.10;;;;;;;;;;4973885;28;20066;-71
2022/11/04 13:22:40;;;;;;;27.75;17.55;;;;;;;;;;4973687;28;20118;-71
2022/11/04 13:25:06;;;;;;;31.95;17.48;;;;;;;;;;4973916;28;20019;-71
2022/11/04 13:27:37;;;;;;;31.23;17.77;;;;;;;;;;4973310;28;20545;-71
2022/11/04 13:30:20;;;;;;;39.50;21.33;;;;;;;;;;5035634;28;20060;-71
2022/11/04 13:32:47;;;;;;;23.02;13.00;;;;;;;;;;5054071;28;20375;-71
2022/11/04 13:35:32;;;;;;;25.15;12.60;;;;;;;;;;5054234;28;20021;-71
2022/11/04 13:38:02;;;;;;;30.25;13.93;;;;;;;;;;5041960;28;20024;-71
2022/11/04 13:40:34;;;;;;;31.27;14.90;;;;;;;;;;5053792;28;20025;-71
2022/11/04 13:43:36;;;;;;;33.28;19.00;;;;;;;;;;5054038;28;20068;-72
2022/11/04 13:45:48;;;;;;;33.30;16.23;;;;;;;;;;5053401;28;20044;-71
2022/11/04 13:48:18;;;;;;;35.78;15.35;;;;;;;;;;5053889;28;20037;-71
2022/11/04 13:50:44;;;;;;;26.88;15.52;;;;;;;;;;5053709;28;20025;-71
2022/11/04 13:53:10;;;;;;;24.65;14.63;;;;;;;;;;5053822;28;20086;-73
2022/11/04 13:55:47;;;;;;;27.88;15.38;;;;;;;;;;5053837;28;20024;-71
2022/11/04 13:58:20;;;;;;;29.50;16.15;;;;;;;;;;5053819;28;20108;-72
2022/11/04 14:01:06;;;;;;;46.78;20.70;;;;;;;;;;5053701;28;20052;-71
2022/11/04 14:03:52;;;;;;;39.03;23.60;;;;;;;;;;5054081;28;20510;-71
2022/11/04 14:06:38;;;;;;;51.00;31.35;;;;;;;;;;5053310;28;20017;-71
2022/11/04 14:09:43;;;;;;;46.92;24.17;;;;;;;;;;5053435;28;20479;-72
2022/11/04 14:12:17;;;;;;;45.28;25.17;;;;;;;;;;4972554;28;20509;-71
2022/11/04 14:14:49;;;;;;;36.22;20.08;;;;;;;;;;4972859;28;20054;-73
2022/11/04 14:17:33;;;;;;;23.77;16.65;;;;;;;;;;4972460;28;20084;-71
2022/11/04 14:20:05;;;;;;;49.30;30.60;;;;;;;;;;4972584;28;20539;-71
2022/11/04 14:22:44;;;;;;;60.15;36.10;;;;;;;;;;4972522;28;20118;-71
2022/11/04 14:25:28;;;;;;;61.70;34.03;;;;;;;;;;4972336;28;20070;-71
2022/11/04 14:27:59;;;;;;;53.60;28.33;;;;;;;;;;4972356;28;20045;-71
2022/11/04 14:30:34;;;;;;;64.88;38.67;;;;;;;;;;4972449;28;20034;-71
2022/11/04 14:33:06;;;;;;;66.97;45.10;;;;;;;;;;4971972;28;20090;-71
2022/11/04 14:35:32;;;;;;;50.78;36.28;;;;;;;;;;4972098;28;20449;-71
2022/11/04 14:38:01;;;;;;;69.10;43.13;;;;;;;;;;4972245;28;20055;-71
2022/11/04 14:40:45;;;;;;;74.30;44.10;;;;;;;;;;4972479;28;20041;-71
2022/11/04 14:43:19;;;;;;;68.18;34.22;;;;;;;;;;5022433;28;20052;-71
2022/11/04 14:45:45;;;;;;;57.53;35.00;;;;;;;;;;5020770;28;20456;-71
2022/11/04 14:48:19;;;;;;;60.65;40.22;;;;;;;;;;5052674;28;20045;-71
2022/11/04 14:50:49;;;;;;;60.97;34.55;;;;;;;;;;5052806;28;20356;-72
2022/11/04 14:53:36;;;;;;;68.13;34.72;;;;;;;;;;5052511;28;20096;-71
2022/11/04 14:56:22;;;;;;;69.72;40.85;;;;;;;;;;5052547;28;20108;-72
2022/11/04 14:59:15;;;;;;;79.85;47.38;;;;;;;;;;5052711;28;20060;-70
2022/11/04 15:01:41;;;;;;;69.10;40.50;;;;;;;;;;5049115;28;20037;-71
2022/11/04 15:04:13;;;;;;;82.53;53.78;;;;;;;;;;5053072;28;20056;-70